sensor_id;sensor_type;location;lat;lon;timestamp;temperature;humidity
67603;DHT22;54417;47.454;18.918;2023-04-24T00:02:12;11.46;70.37
67603;DHT22;54417;47.454;18.918;2023-04-24T00:07:17;11.55;70.00
67603;DHT22;54417;47.454;18.918;2023-04-24T00:12:22;11.79;70.48
67603;DHT22;54417;47.454;18.918;2023-04-24T00:17:27;11.91;67.81
67603;DHT22;54417;47.454;18.918;2023-04-24T00:22:31;11.93;69.77
67603;DHT22;54417;47.454;18.918;2023-04-24T00:27:35;11.86;71.27
67603;DHT22;54417;47.454;18.918;2023-04-24T00:32:41;11.90;70.16
67603;DHT22;54417;47.454;18.918;2023-04-24T00:37:50;11.74;72.18
67603;DHT22;54417;47.454;18.918;2023-04-24T00:42:58;11.83;70.19
67603;DHT22;54417;47.454;18.918;2023-04-24T00:48:04;12.02;69.59
67603;DHT22;54417;47.454;18.918;2023-04-24T00:53:08;12.28;68.75
67603;DHT22;54417;47.454;18.918;2023-04-24T00:58:12;12.42;67.33
67603;DHT22;54417;47.454;18.918;2023-04-24T01:03:25;12.46;68.18
67603;DHT22;54417;47.454;18.918;2023-04-24T01:08:30;12.60;66.86
67603;DHT22;54417;47.454;18.918;2023-04-24T01:13:39;12.60;67.44
67603;DHT22;54417;47.454;18.918;2023-04-24T01:18:46;12.82;66.51
67603;DHT22;54417;47.454;18.918;2023-04-24T01:23:56;12.89;66.33
67603;DHT22;54417;47.454;18.918;2023-04-24T01:29:01;12.89;68.93
67603;DHT22;54417;47.454;18.918;2023-04-24T01:34:06;12.89;68.53
67603;DHT22;54417;47.454;18.918;2023-04-24T01:39:11;12.97;67.99
67603;DHT22;54417;47.454;18.918;2023-04-24T01:44:21;13.03;68.07
67603;DHT22;54417;47.454;18.918;2023-04-24T01:49:25;13.07;68.18
67603;DHT22;54417;47.454;18.918;2023-04-24T01:54:30;12.96;69.30
67603;DHT22;54417;47.454;18.918;2023-04-24T01:59:34;13.03;70.26
67603;DHT22;54417;47.454;18.918;2023-04-24T02:04:39;13.02;71.37
67603;DHT22;54417;47.454;18.918;2023-04-24T02:09:44;12.90;71.63
67603;DHT22;54417;47.454;18.918;2023-04-24T02:14:53;12.87;71.65
67603;DHT22;54417;47.454;18.918;2023-04-24T02:19:57;12.78;71.83
67603;DHT22;54417;47.454;18.918;2023-04-24T02:25:02;12.62;72.86
67603;DHT22;54417;47.454;18.918;2023-04-24T02:30:07;12.60;72.58
67603;DHT22;54417;47.454;18.918;2023-04-24T02:35:11;12.59;73.34
67603;DHT22;54417;47.454;18.918;2023-04-24T02:40:16;12.58;73.30
67603;DHT22;54417;47.454;18.918;2023-04-24T02:45:22;12.58;73.25
67603;DHT22;54417;47.454;18.918;2023-04-24T02:50:26;12.59;73.44
67603;DHT22;54417;47.454;18.918;2023-04-24T02:55:36;12.68;73.92
67603;DHT22;54417;47.454;18.918;2023-04-24T03:00:40;12.58;74.17
67603;DHT22;54417;47.454;18.918;2023-04-24T03:05:44;12.49;74.74
67603;DHT22;54417;47.454;18.918;2023-04-24T03:10:49;12.38;74.92
67603;DHT22;54417;47.454;18.918;2023-04-24T03:15:53;12.41;74.92
67603;DHT22;54417;47.454;18.918;2023-04-24T03:20:57;12.35;75.35
67603;DHT22;54417;47.454;18.918;2023-04-24T03:26:04;12.25;76.03
67603;DHT22;54417;47.454;18.918;2023-04-24T03:31:09;12.01;76.81
67603;DHT22;54417;47.454;18.918;2023-04-24T03:36:13;11.94;77.29
67603;DHT22;54417;47.454;18.918;2023-04-24T03:41:20;11.98;77.36
67603;DHT22;54417;47.454;18.918;2023-04-24T03:46:29;11.94;77.42
67603;DHT22;54417;47.454;18.918;2023-04-24T03:51:40;11.97;77.73
67603;DHT22;54417;47.454;18.918;2023-04-24T03:56:54;12.22;76.73
67603;DHT22;54417;47.454;18.918;2023-04-24T04:02:05;12.45;76.17
67603;DHT22;54417;47.454;18.918;2023-04-24T04:07:16;12.39;76.68
67603;DHT22;54417;47.454;18.918;2023-04-24T04:12:22;12.42;77.21
67603;DHT22;54417;47.454;18.918;2023-04-24T04:17:26;12.29;77.90
67603;DHT22;54417;47.454;18.918;2023-04-24T04:22:30;12.46;76.43
67603;DHT22;54417;47.454;18.918;2023-04-24T04:27:37;12.53;75.42
67603;DHT22;54417;47.454;18.918;2023-04-24T04:32:45;12.58;75.42
67603;DHT22;54417;47.454;18.918;2023-04-24T04:37:55;12.73;74.96
67603;DHT22;54417;47.454;18.918;2023-04-24T04:43:12;12.85;74.50
67603;DHT22;54417;47.454;18.918;2023-04-24T04:48:24;12.92;74.24
67603;DHT22;54417;47.454;18.918;2023-04-24T04:53:34;12.93;74.45
67603;DHT22;54417;47.454;18.918;2023-04-24T04:58:45;12.93;73.90
67603;DHT22;54417;47.454;18.918;2023-04-24T05:03:51;13.06;73.98
67603;DHT22;54417;47.454;18.918;2023-04-24T05:08:56;13.24;73.92
67603;DHT22;54417;47.454;18.918;2023-04-24T05:14:14;13.45;73.06
67603;DHT22;54417;47.454;18.918;2023-04-24T05:19:20;13.47;72.70
67603;DHT22;54417;47.454;18.918;2023-04-24T05:24:30;13.40;74.15
67603;DHT22;54417;47.454;18.918;2023-04-24T05:29:59;13.27;74.60
67603;DHT22;54417;47.454;18.918;2023-04-24T05:35:04;13.28;74.92
67603;DHT22;54417;47.454;18.918;2023-04-24T05:40:13;13.59;74.53
67603;DHT22;54417;47.454;18.918;2023-04-24T05:45:24;13.74;73.38
67603;DHT22;54417;47.454;18.918;2023-04-24T05:50:33;14.05;72.46
67603;DHT22;54417;47.454;18.918;2023-04-24T05:55:38;14.13;72.17
67603;DHT22;54417;47.454;18.918;2023-04-24T06:00:49;14.30;71.40
67603;DHT22;54417;47.454;18.918;2023-04-24T06:05:53;14.44;71.35
67603;DHT22;54417;47.454;18.918;2023-04-24T06:11:03;14.36;71.67
67603;DHT22;54417;47.454;18.918;2023-04-24T06:16:14;14.32;73.00
67603;DHT22;54417;47.454;18.918;2023-04-24T06:21:27;14.36;74.05
67603;DHT22;54417;47.454;18.918;2023-04-24T06:26:31;14.50;73.79
67603;DHT22;54417;47.454;18.918;2023-04-24T06:31:36;14.61;73.35
67603;DHT22;54417;47.454;18.918;2023-04-24T06:36:41;14.80;72.76
67603;DHT22;54417;47.454;18.918;2023-04-24T06:41:49;14.91;72.28
67603;DHT22;54417;47.454;18.918;2023-04-24T06:46:56;14.92;72.86
67603;DHT22;54417;47.454;18.918;2023-04-24T06:52:05;14.95;72.51
67603;DHT22;54417;47.454;18.918;2023-04-24T06:57:14;15.05;72.79
67603;DHT22;54417;47.454;18.918;2023-04-24T07:02:26;15.28;72.47
67603;DHT22;54417;47.454;18.918;2023-04-24T07:07:35;15.56;71.74
67603;DHT22;54417;47.454;18.918;2023-04-24T07:12:40;15.84;70.97
67603;DHT22;54417;47.454;18.918;2023-04-24T07:17:47;15.88;70.88
67603;DHT22;54417;47.454;18.918;2023-04-24T07:22:50;16.01;70.50
67603;DHT22;54417;47.454;18.918;2023-04-24T07:28:01;16.17;69.80
67603;DHT22;54417;47.454;18.918;2023-04-24T07:33:06;16.46;69.73
67603;DHT22;54417;47.454;18.918;2023-04-24T07:38:15;16.66;69.35
67603;DHT22;54417;47.454;18.918;2023-04-24T07:43:24;16.90;69.71
67603;DHT22;54417;47.454;18.918;2023-04-24T07:48:29;17.18;68.83
67603;DHT22;54417;47.454;18.918;2023-04-24T07:53:38;17.36;67.75
67603;DHT22;54417;47.454;18.918;2023-04-24T07:58:47;17.93;67.41
67603;DHT22;54417;47.454;18.918;2023-04-24T08:03:57;17.72;67.07
67603;DHT22;54417;47.454;18.918;2023-04-24T08:09:06;17.08;68.68
67603;DHT22;54417;47.454;18.918;2023-04-24T08:14:15;17.03;69.26
67603;DHT22;54417;47.454;18.918;2023-04-24T08:19:20;16.93;68.47
67603;DHT22;54417;47.454;18.918;2023-04-24T08:24:29;17.07;69.70
67603;DHT22;54417;47.454;18.918;2023-04-24T08:29:38;17.14;68.58
67603;DHT22;54417;47.454;18.918;2023-04-24T08:34:48;17.59;67.13
67603;DHT22;54417;47.454;18.918;2023-04-24T08:39:54;18.29;66.58
67603;DHT22;54417;47.454;18.918;2023-04-24T08:44:57;18.65;62.92
67603;DHT22;54417;47.454;18.918;2023-04-24T08:50:08;19.22;63.67
67603;DHT22;54417;47.454;18.918;2023-04-24T08:55:31;19.84;61.03
67603;DHT22;54417;47.454;18.918;2023-04-24T09:00:36;20.50;59.90
67603;DHT22;54417;47.454;18.918;2023-04-24T09:05:42;20.79;59.06
67603;DHT22;54417;47.454;18.918;2023-04-24T09:10:47;20.70;57.57
67603;DHT22;54417;47.454;18.918;2023-04-24T09:15:57;20.73;58.33
67603;DHT22;54417;47.454;18.918;2023-04-24T09:21:09;21.15;55.55
67603;DHT22;54417;47.454;18.918;2023-04-24T09:26:18;21.46;54.45
67603;DHT22;54417;47.454;18.918;2023-04-24T09:31:28;21.56;55.67
67603;DHT22;54417;47.454;18.918;2023-04-24T09:36:35;21.41;55.10
67603;DHT22;54417;47.454;18.918;2023-04-24T09:41:46;21.41;54.91
67603;DHT22;54417;47.454;18.918;2023-04-24T09:46:51;21.53;56.06
67603;DHT22;54417;47.454;18.918;2023-04-24T09:52:04;21.65;54.98
67603;DHT22;54417;47.454;18.918;2023-04-24T09:57:14;22.00;54.58
67603;DHT22;54417;47.454;18.918;2023-04-24T10:02:23;22.08;55.24
67603;DHT22;54417;47.454;18.918;2023-04-24T10:07:28;22.03;52.96
67603;DHT22;54417;47.454;18.918;2023-04-24T10:12:37;21.90;54.33
67603;DHT22;54417;47.454;18.918;2023-04-24T10:17:41;21.79;54.39
67603;DHT22;54417;47.454;18.918;2023-04-24T10:22:52;21.67;54.47
67603;DHT22;54417;47.454;18.918;2023-04-24T10:27:56;21.52;53.63
67603;DHT22;54417;47.454;18.918;2023-04-24T10:33:02;21.49;54.66
67603;DHT22;54417;47.454;18.918;2023-04-24T10:38:09;21.60;53.91
67603;DHT22;54417;47.454;18.918;2023-04-24T10:43:17;21.35;54.32
67603;DHT22;54417;47.454;18.918;2023-04-24T10:48:26;21.21;54.64
67603;DHT22;54417;47.454;18.918;2023-04-24T10:53:37;21.17;54.82
67603;DHT22;54417;47.454;18.918;2023-04-24T10:58:51;21.69;53.70
67603;DHT22;54417;47.454;18.918;2023-04-24T11:04:00;21.87;53.25
67603;DHT22;54417;47.454;18.918;2023-04-24T11:09:15;22.35;53.16
67603;DHT22;54417;47.454;18.918;2023-04-24T11:14:24;22.18;49.60
67603;DHT22;54417;47.454;18.918;2023-04-24T11:19:33;22.25;49.76
67603;DHT22;54417;47.454;18.918;2023-04-24T11:24:50;22.54;49.15
67603;DHT22;54417;47.454;18.918;2023-04-24T11:30:05;22.41;48.11
67603;DHT22;54417;47.454;18.918;2023-04-24T11:35:16;22.40;47.82
67603;DHT22;54417;47.454;18.918;2023-04-24T11:40:27;22.79;49.03
67603;DHT22;54417;47.454;18.918;2023-04-24T11:45:35;22.82;48.90
67603;DHT22;54417;47.454;18.918;2023-04-24T11:50:46;22.61;48.79
67603;DHT22;54417;47.454;18.918;2023-04-24T11:55:51;22.51;47.61
67603;DHT22;54417;47.454;18.918;2023-04-24T12:00:56;22.35;47.69
67603;DHT22;54417;47.454;18.918;2023-04-24T12:06:06;22.33;47.41
67603;DHT22;54417;47.454;18.918;2023-04-24T12:11:17;21.66;47.75
67603;DHT22;54417;47.454;18.918;2023-04-24T12:16:24;21.50;48.63
67603;DHT22;54417;47.454;18.918;2023-04-24T12:21:34;21.24;50.40
67603;DHT22;54417;47.454;18.918;2023-04-24T12:26:42;21.04;51.22
67603;DHT22;54417;47.454;18.918;2023-04-24T12:31:46;20.74;51.41
67603;DHT22;54417;47.454;18.918;2023-04-24T12:36:55;20.60;51.31
67603;DHT22;54417;47.454;18.918;2023-04-24T12:42:05;20.69;50.96
67603;DHT22;54417;47.454;18.918;2023-04-24T12:47:14;21.20;50.39
67603;DHT22;54417;47.454;18.918;2023-04-24T12:52:24;21.34;50.95
67603;DHT22;54417;47.454;18.918;2023-04-24T12:57:35;20.94;51.06
67603;DHT22;54417;47.454;18.918;2023-04-24T13:02:45;20.64;52.73
67603;DHT22;54417;47.454;18.918;2023-04-24T13:07:54;20.14;59.41
67603;DHT22;54417;47.454;18.918;2023-04-24T13:12:59;19.43;63.67
67603;DHT22;54417;47.454;18.918;2023-04-24T13:18:07;18.38;65.50
67603;DHT22;54417;47.454;18.918;2023-04-24T13:23:16;17.71;69.03
67603;DHT22;54417;47.454;18.918;2023-04-24T13:28:26;17.41;71.42
67603;DHT22;54417;47.454;18.918;2023-04-24T13:33:32;17.30;72.24
67603;DHT22;54417;47.454;18.918;2023-04-24T13:38:40;16.77;73.82
67603;DHT22;54417;47.454;18.918;2023-04-24T13:43:45;16.29;78.66
67603;DHT22;54417;47.454;18.918;2023-04-24T13:48:49;15.70;80.37
67603;DHT22;54417;47.454;18.918;2023-04-24T13:53:58;15.44;81.65
67603;DHT22;54417;47.454;18.918;2023-04-24T13:59:08;15.57;82.36
67603;DHT22;54417;47.454;18.918;2023-04-24T14:04:12;15.76;81.53
67603;DHT22;54417;47.454;18.918;2023-04-24T14:09:21;16.29;80.70
67603;DHT22;54417;47.454;18.918;2023-04-24T14:14:31;16.81;79.67
67603;DHT22;54417;47.454;18.918;2023-04-24T14:19:35;17.02;79.62
67603;DHT22;54417;47.454;18.918;2023-04-24T14:24:44;17.51;78.01
67603;DHT22;54417;47.454;18.918;2023-04-24T14:29:54;18.13;75.31
67603;DHT22;54417;47.454;18.918;2023-04-24T14:35:03;18.36;74.57
67603;DHT22;54417;47.454;18.918;2023-04-24T14:40:08;18.13;73.60
67603;DHT22;54417;47.454;18.918;2023-04-24T14:45:34;17.97;74.78
67603;DHT22;54417;47.454;18.918;2023-04-24T14:50:37;17.90;75.02
67603;DHT22;54417;47.454;18.918;2023-04-24T14:55:46;17.61;75.34
67603;DHT22;54417;47.454;18.918;2023-04-24T15:00:56;17.82;74.70
67603;DHT22;54417;47.454;18.918;2023-04-24T15:06:05;18.11;74.58
67603;DHT22;54417;47.454;18.918;2023-04-24T15:11:14;17.78;73.71
67603;DHT22;54417;47.454;18.918;2023-04-24T15:16:25;17.82;74.41
67603;DHT22;54417;47.454;18.918;2023-04-24T15:21:29;17.69;74.42
67603;DHT22;54417;47.454;18.918;2023-04-24T15:26:38;17.11;74.64
67603;DHT22;54417;47.454;18.918;2023-04-24T15:31:48;16.60;75.80
67603;DHT22;54417;47.454;18.918;2023-04-24T15:36:57;16.52;75.91
67603;DHT22;54417;47.454;18.918;2023-04-24T15:42:05;16.18;76.04
67603;DHT22;54417;47.454;18.918;2023-04-24T15:47:15;15.60;77.76
67603;DHT22;54417;47.454;18.918;2023-04-24T15:52:24;15.42;78.40
67603;DHT22;54417;47.454;18.918;2023-04-24T15:57:33;15.15;78.95
67603;DHT22;54417;47.454;18.918;2023-04-24T16:02:38;14.98;79.64
67603;DHT22;54417;47.454;18.918;2023-04-24T16:07:43;14.82;80.00
67603;DHT22;54417;47.454;18.918;2023-04-24T16:12:46;14.72;79.98
67603;DHT22;54417;47.454;18.918;2023-04-24T16:17:58;14.65;80.44
67603;DHT22;54417;47.454;18.918;2023-04-24T16:23:06;14.70;80.61
67603;DHT22;54417;47.454;18.918;2023-04-24T16:28:15;14.40;80.76
67603;DHT22;54417;47.454;18.918;2023-04-24T16:33:25;14.48;81.16
67603;DHT22;54417;47.454;18.918;2023-04-24T16:38:29;14.47;80.94
67603;DHT22;54417;47.454;18.918;2023-04-24T16:43:38;14.51;81.28
67603;DHT22;54417;47.454;18.918;2023-04-24T16:48:48;14.44;81.46
67603;DHT22;54417;47.454;18.918;2023-04-24T16:53:57;14.14;81.88
67603;DHT22;54417;47.454;18.918;2023-04-24T16:59:00;14.05;82.40
67603;DHT22;54417;47.454;18.918;2023-04-24T17:04:05;13.98;82.80
67603;DHT22;54417;47.454;18.918;2023-04-24T17:09:15;13.87;82.92
67603;DHT22;54417;47.454;18.918;2023-04-24T17:14:23;13.78;83.20
67603;DHT22;54417;47.454;18.918;2023-04-24T17:19:34;13.66;83.25
67603;DHT22;54417;47.454;18.918;2023-04-24T17:24:43;13.61;83.37
67603;DHT22;54417;47.454;18.918;2023-04-24T17:29:51;13.45;84.27
67603;DHT22;54417;47.454;18.918;2023-04-24T17:35:02;13.38;84.41
67603;DHT22;54417;47.454;18.918;2023-04-24T17:40:11;13.31;84.45
67603;DHT22;54417;47.454;18.918;2023-04-24T17:45:19;13.16;85.15
67603;DHT22;54417;47.454;18.918;2023-04-24T17:50:29;12.95;84.12
67603;DHT22;54417;47.454;18.918;2023-04-24T17:55:39;12.87;84.43
67603;DHT22;54417;47.454;18.918;2023-04-24T18:00:49;12.90;84.34
67603;DHT22;54417;47.454;18.918;2023-04-24T18:06:00;12.76;84.27
67603;DHT22;54417;47.454;18.918;2023-04-24T18:11:08;12.70;83.67
67603;DHT22;54417;47.454;18.918;2023-04-24T18:16:12;12.62;82.94
67603;DHT22;54417;47.454;18.918;2023-04-24T18:21:22;12.62;82.65
67603;DHT22;54417;47.454;18.918;2023-04-24T18:26:31;12.60;82.04
67603;DHT22;54417;47.454;18.918;2023-04-24T18:31:40;12.63;82.10
67603;DHT22;54417;47.454;18.918;2023-04-24T18:36:45;12.60;82.76
67603;DHT22;54417;47.454;18.918;2023-04-24T18:41:48;12.59;82.43
67603;DHT22;54417;47.454;18.918;2023-04-24T18:46:52;12.52;82.35
67603;DHT22;54417;47.454;18.918;2023-04-24T18:52:02;12.51;82.58
67603;DHT22;54417;47.454;18.918;2023-04-24T18:57:11;12.48;82.60
67603;DHT22;54417;47.454;18.918;2023-04-24T19:02:15;12.49;82.74
67603;DHT22;54417;47.454;18.918;2023-04-24T19:07:25;12.49;82.77
67603;DHT22;54417;47.454;18.918;2023-04-24T19:12:30;12.42;82.62
67603;DHT22;54417;47.454;18.918;2023-04-24T19:17:39;12.45;83.02
67603;DHT22;54417;47.454;18.918;2023-04-24T19:22:49;12.49;82.74
67603;DHT22;54417;47.454;18.918;2023-04-24T19:27:53;12.42;82.77
67603;DHT22;54417;47.454;18.918;2023-04-24T19:33:02;12.35;82.68
67603;DHT22;54417;47.454;18.918;2023-04-24T19:38:12;12.31;82.67
67603;DHT22;54417;47.454;18.918;2023-04-24T19:43:21;12.37;82.81
67603;DHT22;54417;47.454;18.918;2023-04-24T19:48:25;12.29;82.79
67603;DHT22;54417;47.454;18.918;2023-04-24T19:53:33;12.27;82.94
67603;DHT22;54417;47.454;18.918;2023-04-24T19:58:42;12.27;83.06
67603;DHT22;54417;47.454;18.918;2023-04-24T20:03:46;12.27;83.21
67603;DHT22;54417;47.454;18.918;2023-04-24T20:08:56;12.29;83.34
67603;DHT22;54417;47.454;18.918;2023-04-24T20:14:05;12.27;83.50
67603;DHT22;54417;47.454;18.918;2023-04-24T20:19:13;12.27;83.75
67603;DHT22;54417;47.454;18.918;2023-04-24T20:24:24;12.34;83.75
67603;DHT22;54417;47.454;18.918;2023-04-24T20:29:32;12.28;84.08
67603;DHT22;54417;47.454;18.918;2023-04-24T20:34:41;12.25;83.88
67603;DHT22;54417;47.454;18.918;2023-04-24T20:39:46;12.21;83.77
67603;DHT22;54417;47.454;18.918;2023-04-24T20:44:52;12.22;83.71
67603;DHT22;54417;47.454;18.918;2023-04-24T20:50:01;12.25;83.68
67603;DHT22;54417;47.454;18.918;2023-04-24T20:55:12;12.35;83.81
67603;DHT22;54417;47.454;18.918;2023-04-24T21:00:16;12.31;83.66
67603;DHT22;54417;47.454;18.918;2023-04-24T21:05:25;12.27;83.58
67603;DHT22;54417;47.454;18.918;2023-04-24T21:10:30;12.17;83.82
67603;DHT22;54417;47.454;18.918;2023-04-24T21:15:34;12.24;84.04
67603;DHT22;54417;47.454;18.918;2023-04-24T21:20:44;12.21;83.53
67603;DHT22;54417;47.454;18.918;2023-04-24T21:25:49;12.18;83.09
67603;DHT22;54417;47.454;18.918;2023-04-24T21:30:53;12.16;82.82
67603;DHT22;54417;47.454;18.918;2023-04-24T21:36:03;12.11;83.62
67603;DHT22;54417;47.454;18.918;2023-04-24T21:41:13;12.05;83.67
67603;DHT22;54417;47.454;18.918;2023-04-24T21:46:21;12.02;82.89
67603;DHT22;54417;47.454;18.918;2023-04-24T21:51:30;11.97;82.71
67603;DHT22;54417;47.454;18.918;2023-04-24T21:56:41;11.93;82.57
67603;DHT22;54417;47.454;18.918;2023-04-24T22:01:50;11.87;82.64
67603;DHT22;54417;47.454;18.918;2023-04-24T22:06:58;11.83;83.03
67603;DHT22;54417;47.454;18.918;2023-04-24T22:12:09;11.70;83.80
67603;DHT22;54417;47.454;18.918;2023-04-24T22:17:17;11.60;83.70
67603;DHT22;54417;47.454;18.918;2023-04-24T22:22:26;11.55;83.51
67603;DHT22;54417;47.454;18.918;2023-04-24T22:27:36;11.43;84.67
67603;DHT22;54417;47.454;18.918;2023-04-24T22:32:46;11.28;85.22
67603;DHT22;54417;47.454;18.918;2023-04-24T22:37:53;11.25;85.18
67603;DHT22;54417;47.454;18.918;2023-04-24T22:42:58;11.24;84.95
67603;DHT22;54417;47.454;18.918;2023-04-24T22:48:06;11.22;85.27
67603;DHT22;54417;47.454;18.918;2023-04-24T22:53:15;11.15;85.18
67603;DHT22;54417;47.454;18.918;2023-04-24T22:58:21;11.11;85.18
67603;DHT22;54417;47.454;18.918;2023-04-24T23:03:29;11.12;84.68
67603;DHT22;54417;47.454;18.918;2023-04-24T23:08:39;11.16;84.04
67603;DHT22;54417;47.454;18.918;2023-04-24T23:13:49;11.18;83.65
67603;DHT22;54417;47.454;18.918;2023-04-24T23:18:53;11.19;83.85
67603;DHT22;54417;47.454;18.918;2023-04-24T23:24:02;11.14;83.12
67603;DHT22;54417;47.454;18.918;2023-04-24T23:29:12;11.15;82.80
67603;DHT22;54417;47.454;18.918;2023-04-24T23:34:21;11.15;82.79
67603;DHT22;54417;47.454;18.918;2023-04-24T23:39:30;11.12;82.91
67603;DHT22;54417;47.454;18.918;2023-04-24T23:44:35;11.15;82.68
67603;DHT22;54417;47.454;18.918;2023-04-24T23:49:39;11.16;82.38
67603;DHT22;54417;47.454;18.918;2023-04-24T23:54:47;11.16;82.15
67603;DHT22;54417;47.454;18.918;2023-04-24T23:59:58;11.21;82.22
